createdAt,value
2023-03-10T00:00:42.736Z,37.88
2023-03-10T00:03:09.113Z,38.06
2023-03-10T00:05:35.541Z,38.06
2023-03-10T00:08:01.875Z,37.93
2023-03-10T00:10:28.208Z,37.93
2023-03-10T00:12:54.601Z,37.95
2023-03-10T00:15:20.936Z,37.94
2023-03-10T00:17:47.315Z,37.95
2023-03-10T00:20:13.672Z,38.00
2023-03-10T00:22:40.065Z,37.97
2023-03-10T00:25:06.406Z,38.04
2023-03-10T00:27:32.793Z,38.04
2023-03-10T00:29:59.136Z,38.00
2023-03-10T00:32:25.571Z,38.00
2023-03-10T00:34:51.876Z,38.09
2023-03-10T00:37:18.262Z,38.04
2023-03-10T00:39:44.605Z,38.11
2023-03-10T00:42:10.991Z,38.10
2023-03-10T00:44:38.564Z,38.13
2023-03-10T00:47:03.716Z,38.13
2023-03-10T00:49:30.075Z,38.15
2023-03-10T00:51:56.464Z,38.16
2023-03-10T00:54:22.795Z,38.19
2023-03-10T00:56:49.187Z,38.18
2023-03-10T00:59:15.522Z,38.23
2023-03-10T01:01:41.976Z,38.22
2023-03-10T01:04:08.310Z,38.24
2023-03-10T01:06:34.654Z,38.26
2023-03-10T01:09:00.993Z,38.29
2023-03-10T01:11:27.393Z,38.26
2023-03-10T01:13:53.729Z,38.24
2023-03-10T01:16:20.180Z,38.30
2023-03-10T01:18:46.471Z,38.30
2023-03-10T01:21:12.863Z,38.33
2023-03-10T01:23:39.192Z,38.34
2023-03-10T01:26:05.641Z,38.37
2023-03-10T01:28:31.993Z,38.39
2023-03-10T01:30:58.462Z,38.44
2023-03-10T01:33:24.769Z,38.41
2023-03-10T01:35:51.175Z,38.41
2023-03-10T01:38:17.553Z,38.45
2023-03-10T01:40:43.902Z,38.46
2023-03-10T01:43:10.256Z,38.45
2023-03-10T01:45:36.642Z,38.46
2023-03-10T01:48:02.982Z,38.52
2023-03-10T01:50:29.360Z,38.54
2023-03-10T01:52:55.703Z,38.53
2023-03-10T01:55:22.096Z,38.54
2023-03-10T01:57:48.429Z,38.55
2023-03-10T02:00:14.817Z,38.58
2023-03-10T02:02:41.170Z,38.58
2023-03-10T02:05:07.571Z,38.61
2023-03-10T02:07:33.903Z,38.60
2023-03-10T02:10:00.305Z,38.63
2023-03-10T02:12:26.655Z,38.66
2023-03-10T02:14:54.252Z,38.64
2023-03-10T02:17:19.381Z,38.66
2023-03-10T02:19:45.774Z,38.68
2023-03-10T02:22:12.120Z,38.70
2023-03-10T02:24:38.507Z,38.71
2023-03-10T02:27:04.862Z,38.69
2023-03-10T02:29:31.243Z,38.70
2023-03-10T02:32:00.093Z,38.74
2023-03-10T02:34:26.421Z,38.76
2023-03-10T02:36:52.765Z,38.75
2023-03-10T02:39:19.161Z,38.78
2023-03-10T02:41:45.808Z,38.78
2023-03-10T02:44:11.921Z,38.81
2023-03-10T02:46:38.259Z,38.82
2023-03-10T02:49:04.656Z,38.83
2023-03-10T02:54:16.321Z,38.88
2023-03-10T02:56:42.635Z,38.89
2023-03-10T02:59:09.022Z,38.89
2023-03-10T03:01:35.481Z,38.92
2023-03-10T03:04:01.816Z,38.92
2023-03-10T03:06:28.095Z,38.95
2023-03-10T03:08:54.485Z,38.84
2023-03-10T03:11:20.828Z,38.80
2023-03-10T03:13:47.232Z,38.73
2023-03-10T03:16:13.625Z,38.67
2023-03-10T03:18:39.963Z,38.61
2023-03-10T03:21:06.308Z,38.49
2023-03-10T03:23:32.712Z,38.46
2023-03-10T03:25:59.048Z,38.40
2023-03-10T03:28:25.431Z,38.32
2023-03-10T03:30:51.793Z,38.33
2023-03-10T03:33:18.169Z,38.26
2023-03-10T03:35:44.560Z,38.18
2023-03-10T03:38:10.935Z,38.10
2023-03-10T03:40:37.311Z,38.10
2023-03-10T03:43:03.683Z,37.99
2023-03-10T03:45:30.033Z,37.96
2023-03-10T03:47:56.417Z,37.94
2023-03-10T03:50:22.766Z,37.90
2023-03-10T03:52:49.144Z,37.83
2023-03-10T03:55:15.487Z,37.79
2023-03-10T03:57:41.872Z,37.75
2023-03-10T04:00:08.219Z,37.72
2023-03-10T04:02:34.637Z,37.73
2023-03-10T04:05:00.978Z,37.64
2023-03-10T04:07:27.384Z,37.60
2023-03-10T04:09:53.733Z,37.60
2023-03-10T04:12:20.109Z,37.53
2023-03-10T04:14:46.459Z,37.48
2023-03-10T04:17:12.864Z,37.42
2023-03-10T04:19:39.214Z,37.42
2023-03-10T04:22:05.597Z,37.40
2023-03-10T04:24:31.936Z,37.38
2023-03-10T04:26:58.355Z,37.32
2023-03-10T04:29:25.928Z,37.29
2023-03-10T04:32:04.852Z,37.26
2023-03-10T04:34:17.457Z,37.31
2023-03-10T04:36:43.845Z,37.24
2023-03-10T04:39:10.194Z,37.19
2023-03-10T04:41:36.590Z,37.17
2023-03-10T04:44:02.949Z,37.14
2023-03-10T04:46:29.401Z,37.10
2023-03-10T04:48:55.713Z,37.01
2023-03-10T04:51:22.104Z,37.01
2023-03-10T04:53:48.450Z,36.98
2023-03-10T04:56:14.883Z,36.99
2023-03-10T04:58:41.214Z,36.92
2023-03-10T05:01:07.640Z,36.79
2023-03-10T05:03:33.946Z,36.78
2023-03-10T05:06:00.366Z,36.73
2023-03-10T05:08:26.673Z,36.72
2023-03-10T05:10:53.063Z,36.72
2023-03-10T05:13:19.428Z,36.65
2023-03-10T05:15:45.860Z,36.65
2023-03-10T05:18:12.181Z,36.66
2023-03-10T05:20:38.557Z,36.61
2023-03-10T05:23:04.898Z,36.55
2023-03-10T05:25:31.290Z,36.66
2023-03-10T05:27:57.646Z,36.69
2023-03-10T05:30:25.729Z,36.55
2023-03-10T05:32:50.423Z,36.69
2023-03-10T05:35:16.840Z,36.62
2023-03-10T05:37:43.178Z,36.80
2023-03-10T05:40:09.563Z,36.36
2023-03-10T05:42:35.938Z,36.37
2023-03-10T05:45:02.311Z,36.30
2023-03-10T05:47:28.648Z,36.51
2023-03-10T05:49:55.081Z,36.30
2023-03-10T05:52:21.402Z,36.33
2023-03-10T05:54:47.791Z,36.34
2023-03-10T05:57:14.245Z,36.48
2023-03-10T05:59:40.509Z,36.21
2023-03-10T06:02:06.883Z,36.21
2023-03-10T06:04:33.224Z,36.27
2023-03-10T06:06:59.588Z,35.99
2023-03-10T06:09:25.967Z,36.03
2023-03-10T06:11:52.353Z,36.35
2023-03-10T06:14:18.700Z,36.17
2023-03-10T06:16:45.160Z,36.16
2023-03-10T06:19:11.426Z,36.16
2023-03-10T06:21:37.818Z,36.03
2023-03-10T06:24:04.219Z,36.10
2023-03-10T06:26:30.557Z,35.91
2023-03-10T06:28:56.898Z,36.13
2023-03-10T06:31:23.402Z,36.13
2023-03-10T06:33:49.625Z,36.03
2023-03-10T06:36:16.101Z,36.45
2023-03-10T06:38:42.364Z,36.50
2023-03-10T06:41:08.755Z,36.11
2023-03-10T06:43:35.089Z,35.88
2023-03-10T06:46:01.501Z,36.39
2023-03-10T06:48:27.808Z,36.39
2023-03-10T06:50:54.235Z,36.08
2023-03-10T06:53:20.577Z,36.18
2023-03-10T06:55:46.960Z,36.61
2023-03-10T06:58:13.309Z,36.21
2023-03-10T07:00:39.711Z,36.25
2023-03-10T07:03:06.101Z,36.07
2023-03-10T07:05:32.456Z,35.83
2023-03-10T07:07:58.805Z,35.60
2023-03-10T07:10:25.189Z,35.65
2023-03-10T07:12:51.557Z,35.65
2023-03-10T07:15:17.936Z,35.64
2023-03-10T07:17:44.292Z,35.53
2023-03-10T07:20:10.678Z,35.66
2023-03-10T07:22:37.014Z,35.47
2023-03-10T07:25:03.411Z,35.48
2023-03-10T07:27:29.758Z,35.54
2023-03-10T07:29:56.146Z,35.61
2023-03-10T07:32:22.518Z,35.51
2023-03-10T07:34:48.893Z,35.64
2023-03-10T07:37:15.243Z,35.71
2023-03-10T07:39:41.635Z,35.74
2023-03-10T07:42:07.983Z,35.77
2023-03-10T07:44:34.376Z,35.85
2023-03-10T07:47:00.752Z,35.87
2023-03-10T07:49:27.147Z,35.92
2023-03-10T07:51:53.487Z,35.90
2023-03-10T07:54:19.872Z,35.90
2023-03-10T07:56:46.223Z,36.02
2023-03-10T07:59:12.633Z,35.95
2023-03-10T08:01:39.140Z,36.07
2023-03-10T08:04:05.583Z,36.08
2023-03-10T08:06:31.783Z,36.21
2023-03-10T08:08:58.209Z,36.20
2023-03-10T08:11:24.526Z,36.11
2023-03-10T08:13:50.968Z,36.11
2023-03-10T08:16:17.265Z,36.24
2023-03-10T08:18:43.626Z,36.24
2023-03-10T08:21:09.996Z,36.24
2023-03-10T08:23:36.860Z,36.38
2023-03-10T08:26:02.727Z,36.44
2023-03-10T08:28:29.110Z,36.44
2023-03-10T08:31:04.008Z,36.46
2023-03-10T08:33:21.843Z,36.33
2023-03-10T08:35:48.204Z,36.41
2023-03-10T08:38:14.599Z,36.46
2023-03-10T08:40:41.043Z,36.48
2023-03-10T08:43:07.447Z,36.60
2023-03-10T08:45:33.827Z,36.64
2023-03-10T08:48:00.206Z,36.64
2023-03-10T08:50:26.602Z,36.43
2023-03-10T08:52:54.340Z,36.40
2023-03-10T08:55:19.288Z,36.40
2023-03-10T08:57:45.702Z,36.50
2023-03-10T09:00:16.073Z,36.50
2023-03-10T09:02:38.460Z,36.13
2023-03-10T09:05:04.763Z,36.13
2023-03-10T09:07:31.165Z,36.10
2023-03-10T09:09:57.502Z,36.10
2023-03-10T09:12:23.892Z,35.98
2023-03-10T09:14:50.228Z,35.40
2023-03-10T09:17:16.624Z,35.63
2023-03-10T09:19:42.968Z,35.58
2023-03-10T09:22:09.353Z,35.48
2023-03-10T09:24:35.686Z,35.48
2023-03-10T09:27:02.061Z,35.83
2023-03-10T09:29:42.190Z,35.78
2023-03-10T09:31:54.867Z,35.69
2023-03-10T09:34:21.148Z,35.58
2023-03-10T09:36:47.541Z,35.58
2023-03-10T09:39:14.018Z,35.22
2023-03-10T09:41:40.372Z,35.22
2023-03-10T09:44:06.745Z,35.53
2023-03-10T09:46:33.145Z,35.62
2023-03-10T09:48:59.485Z,35.44
2023-03-10T09:51:25.874Z,35.45
2023-03-10T09:53:52.219Z,35.54
2023-03-10T09:56:18.604Z,35.58
2023-03-10T09:58:44.953Z,35.50
2023-03-10T10:01:11.332Z,35.72
2023-03-10T10:03:51.421Z,35.74
2023-03-10T10:06:04.073Z,35.64
2023-03-10T10:08:30.481Z,35.92
2023-03-10T10:10:56.853Z,35.46
2023-03-10T10:13:25.611Z,35.58
2023-03-10T10:15:57.154Z,36.16
2023-03-10T10:18:20.915Z,35.90
2023-03-10T10:20:44.903Z,35.57
2023-03-10T10:23:11.226Z,35.26
2023-03-10T10:25:37.615Z,35.58
2023-03-10T10:28:03.947Z,35.57
2023-03-10T10:30:30.414Z,35.36
2023-03-10T10:32:56.721Z,35.69
2023-03-10T10:35:23.044Z,35.31
2023-03-10T10:37:49.385Z,35.23
2023-03-10T10:40:15.770Z,35.50
2023-03-10T10:42:42.118Z,35.41
2023-03-10T10:45:08.536Z,35.50
2023-03-10T10:47:34.881Z,35.46
2023-03-10T10:50:01.266Z,35.43
2023-03-10T10:52:27.664Z,35.49
2023-03-10T10:54:54.038Z,35.57
2023-03-10T10:57:21.353Z,35.76
2023-03-10T10:59:46.751Z,36.06
2023-03-10T11:02:13.109Z,35.88
2023-03-10T11:04:39.472Z,36.07
2023-03-10T11:07:05.857Z,36.13
2023-03-10T11:09:32.246Z,36.34
2023-03-10T11:11:58.600Z,36.48
2023-03-10T11:14:24.981Z,36.55
2023-03-10T11:16:51.354Z,36.66
2023-03-10T11:19:17.721Z,36.78
2023-03-10T11:21:44.079Z,36.82
2023-03-10T11:24:10.472Z,36.90
2023-03-10T11:26:36.818Z,37.00
2023-03-10T11:29:03.229Z,37.08
2023-03-10T11:31:29.672Z,37.15
2023-03-10T11:33:55.945Z,37.22
2023-03-10T11:36:22.286Z,37.33
2023-03-10T11:38:48.681Z,37.34
2023-03-10T11:41:15.056Z,37.40
2023-03-10T11:43:41.442Z,37.42
2023-03-10T11:46:07.811Z,37.43
2023-03-10T11:48:34.161Z,37.51
2023-03-10T11:51:00.513Z,37.52
2023-03-10T11:53:26.901Z,37.48
2023-03-10T11:55:53.256Z,37.48
2023-03-10T11:58:19.696Z,37.45
2023-03-10T12:00:46.024Z,37.47
2023-03-10T12:03:12.459Z,37.55
2023-03-10T12:05:38.803Z,37.51
2023-03-10T12:08:05.189Z,37.50
2023-03-10T12:10:31.613Z,37.58
2023-03-10T12:12:58.027Z,37.57
2023-03-10T12:15:24.439Z,37.52
2023-03-10T12:17:50.826Z,37.49
2023-03-10T12:20:17.283Z,37.46
2023-03-10T12:22:43.549Z,37.34
2023-03-10T12:25:09.896Z,37.35
2023-03-10T12:27:36.285Z,37.35
2023-03-10T12:30:02.628Z,37.44
2023-03-10T12:32:29.076Z,37.55
2023-03-10T12:34:55.393Z,37.64
2023-03-10T12:37:21.780Z,37.61
2023-03-10T12:39:48.147Z,37.62
2023-03-10T12:42:14.518Z,37.68
2023-03-10T12:44:40.920Z,37.68
2023-03-10T12:47:07.360Z,37.72
2023-03-10T12:49:33.671Z,37.74
2023-03-10T12:52:00.034Z,37.70
2023-03-10T12:54:26.382Z,37.67
2023-03-10T12:56:52.742Z,37.61
2023-03-10T12:59:19.102Z,37.56
2023-03-10T13:01:55.144Z,37.47
2023-03-10T13:04:11.847Z,37.58
2023-03-10T13:06:38.224Z,37.62
2023-03-10T13:09:04.610Z,37.55
2023-03-10T13:11:30.996Z,37.58
2023-03-10T13:13:57.388Z,37.51
2023-03-10T13:16:23.792Z,37.58
2023-03-10T13:18:50.129Z,37.65
2023-03-10T13:21:16.513Z,37.66
2023-03-10T13:23:42.855Z,37.57
2023-03-10T13:26:09.246Z,37.54
2023-03-10T13:28:35.633Z,37.43
2023-03-10T13:31:02.016Z,37.40
2023-03-10T13:33:28.346Z,37.58
2023-03-10T13:35:54.776Z,37.52
2023-03-10T13:38:21.085Z,37.56
2023-03-10T13:40:47.476Z,37.63
2023-03-10T13:43:14.914Z,37.57
2023-03-10T13:45:41.428Z,37.54
2023-03-10T13:48:07.698Z,37.60
2023-03-10T13:50:34.059Z,37.75
2023-03-10T13:53:00.424Z,37.67
2023-03-10T13:55:26.848Z,37.59
2023-03-10T13:57:53.147Z,37.66
2023-03-10T14:00:19.529Z,37.66
2023-03-10T14:02:45.873Z,37.71
2023-03-10T14:05:12.272Z,37.73
2023-03-10T14:07:38.615Z,37.78
2023-03-10T14:10:05.022Z,37.89
2023-03-10T14:12:31.364Z,37.98
2023-03-10T14:14:57.771Z,37.98
2023-03-10T14:17:24.114Z,37.94
2023-03-10T14:19:50.532Z,38.01
2023-03-10T14:22:16.898Z,38.06
2023-03-10T14:24:43.278Z,38.07
2023-03-10T14:27:10.689Z,38.04
2023-03-10T14:29:37.107Z,38.13
2023-03-10T14:32:03.461Z,38.00
2023-03-10T14:34:29.852Z,37.94
2023-03-10T14:36:56.206Z,38.12
2023-03-10T14:39:22.593Z,37.79
2023-03-10T14:41:49.006Z,37.68
2023-03-10T14:44:15.383Z,37.58
2023-03-10T14:46:41.828Z,37.48
2023-03-10T14:49:08.124Z,37.35
2023-03-10T14:51:36.460Z,37.17
2023-03-10T14:54:00.858Z,37.27
2023-03-10T14:56:27.162Z,37.23
2023-03-10T14:58:53.536Z,37.29
2023-03-10T15:01:19.892Z,37.38
2023-03-10T15:03:46.260Z,37.39
2023-03-10T15:06:12.602Z,37.30
2023-03-10T15:08:38.980Z,37.25
2023-03-10T15:11:05.319Z,37.24
2023-03-10T15:13:31.718Z,37.28
2023-03-10T15:15:58.103Z,37.29
2023-03-10T15:18:24.456Z,37.27
2023-03-10T15:20:50.788Z,37.28
2023-03-10T15:23:19.303Z,37.28
2023-03-10T15:25:45.708Z,37.20
2023-03-10T15:28:09.873Z,37.32
2023-03-10T15:30:36.220Z,37.42
2023-03-10T15:33:02.598Z,37.53
2023-03-10T15:35:28.936Z,37.45
2023-03-10T15:37:55.308Z,37.43
2023-03-10T15:40:21.656Z,37.37
2023-03-10T15:42:48.054Z,37.40
2023-03-10T15:45:14.380Z,37.45
2023-03-10T15:47:40.773Z,37.56
2023-03-10T15:50:07.116Z,37.53
2023-03-10T15:52:33.499Z,37.54
2023-03-10T15:54:59.865Z,37.45
2023-03-10T15:57:26.242Z,37.45
2023-03-10T15:59:52.586Z,37.73
2023-03-10T16:02:19.000Z,37.69
2023-03-10T16:04:45.384Z,37.77
2023-03-10T16:07:11.724Z,37.85
2023-03-10T16:09:38.065Z,37.92
2023-03-10T16:12:04.760Z,37.92
2023-03-10T16:14:31.106Z,37.90
2023-03-10T16:16:57.487Z,37.93
2023-03-10T16:19:23.814Z,37.98
2023-03-10T16:21:50.224Z,37.99
2023-03-10T16:24:16.587Z,38.07
2023-03-10T16:26:44.720Z,37.95
2023-03-10T16:29:09.319Z,37.95
2023-03-10T16:31:35.676Z,37.96
2023-03-10T16:34:02.041Z,37.92
2023-03-10T16:36:28.387Z,37.86
2023-03-10T16:38:54.775Z,37.73
2023-03-10T16:41:21.131Z,37.73
2023-03-10T16:43:47.514Z,37.86
2023-03-10T16:46:13.969Z,37.81
2023-03-10T16:48:40.313Z,37.97
2023-03-10T16:51:06.645Z,37.99
2023-03-10T16:53:33.040Z,38.07
2023-03-10T16:55:59.373Z,38.01
2023-03-10T16:58:25.788Z,38.02
2023-03-10T17:00:52.128Z,38.04
2023-03-10T17:03:18.556Z,38.08
2023-03-10T17:05:44.854Z,38.15
2023-03-10T17:08:11.227Z,38.14
2023-03-10T17:10:37.563Z,38.12
2023-03-10T17:13:03.949Z,38.04
2023-03-10T17:15:30.291Z,38.28
2023-03-10T17:17:56.747Z,38.21
2023-03-10T17:20:23.087Z,38.21
2023-03-10T17:22:49.500Z,38.24
2023-03-10T17:25:15.839Z,38.25
2023-03-10T17:27:43.288Z,38.47
2023-03-10T17:30:08.566Z,38.28
2023-03-10T17:32:34.981Z,38.31
2023-03-10T17:35:02.241Z,38.25
2023-03-10T17:37:27.663Z,37.98
2023-03-10T17:39:54.014Z,38.27
2023-03-10T17:42:20.397Z,38.28
2023-03-10T17:44:46.745Z,38.23
2023-03-10T17:47:13.119Z,38.23
2023-03-10T17:49:39.461Z,38.35
2023-03-10T17:52:05.841Z,38.49
2023-03-10T17:54:32.184Z,38.41
2023-03-10T17:56:58.559Z,38.41
2023-03-10T17:59:24.903Z,38.85
2023-03-10T18:01:51.334Z,38.85
2023-03-10T18:04:17.666Z,38.29
2023-03-10T18:06:44.047Z,38.57
2023-03-10T18:09:10.391Z,38.60
2023-03-10T18:11:36.816Z,38.54
2023-03-10T18:14:04.002Z,38.53
2023-03-10T18:16:29.600Z,38.49
2023-03-10T18:18:55.939Z,38.68
2023-03-10T18:21:22.391Z,38.68
2023-03-10T18:23:48.743Z,38.73
2023-03-10T18:26:15.115Z,38.63
2023-03-10T18:28:41.492Z,38.61
2023-03-10T18:31:07.978Z,38.66
2023-03-10T18:33:34.319Z,38.34
2023-03-10T18:36:00.667Z,38.28
2023-03-10T18:38:27.065Z,38.38
2023-03-10T18:40:53.444Z,38.51
2023-03-10T18:43:19.777Z,38.73
2023-03-10T18:45:46.162Z,38.31
2023-03-10T18:48:12.528Z,38.36
2023-03-10T18:50:38.891Z,38.28
2023-03-10T18:53:05.261Z,38.17
2023-03-10T18:55:31.641Z,38.26
2023-03-10T18:57:58.016Z,38.32
2023-03-10T19:00:24.378Z,38.31
2023-03-10T19:02:50.777Z,38.29
2023-03-10T19:05:17.136Z,38.37
2023-03-10T19:07:43.468Z,38.70
2023-03-10T19:10:09.854Z,38.70
2023-03-10T19:12:36.222Z,38.85
2023-03-10T19:15:02.592Z,38.95
2023-03-10T19:17:28.933Z,39.11
2023-03-10T19:19:55.325Z,39.11
2023-03-10T19:22:21.659Z,38.91
2023-03-10T19:24:48.051Z,38.89
2023-03-10T19:27:14.392Z,38.81
2023-03-10T19:29:40.775Z,39.06
2023-03-10T19:32:07.115Z,39.31
2023-03-10T19:34:33.498Z,39.29
2023-03-10T19:36:59.841Z,39.15
2023-03-10T19:39:26.221Z,39.35
2023-03-10T19:41:52.554Z,39.23
2023-03-10T19:44:19.012Z,39.31
2023-03-10T19:46:45.393Z,38.95
2023-03-10T19:49:11.740Z,39.19
2023-03-10T19:51:38.126Z,39.13
2023-03-10T19:54:04.501Z,39.49
2023-03-10T19:56:30.835Z,39.20
2023-03-10T19:58:57.230Z,39.95
2023-03-10T20:01:23.547Z,39.50
2023-03-10T20:03:49.961Z,39.50
2023-03-10T20:06:16.252Z,39.38
2023-03-10T20:08:42.632Z,39.19
2023-03-10T20:11:08.979Z,39.12
2023-03-10T20:13:35.385Z,39.12
2023-03-10T20:16:01.717Z,38.92
2023-03-10T20:18:28.126Z,39.05
2023-03-10T20:20:54.457Z,39.12
2023-03-10T20:23:20.841Z,39.18
2023-03-10T20:25:47.169Z,39.36
2023-03-10T20:28:13.545Z,39.21
2023-03-10T20:30:39.880Z,39.10
2023-03-10T20:33:06.268Z,39.22
2023-03-10T20:35:32.652Z,38.83
2023-03-10T20:37:58.972Z,39.14
2023-03-10T20:40:25.352Z,39.14
2023-03-10T20:42:52.668Z,39.15
2023-03-10T20:45:18.068Z,39.13
2023-03-10T20:47:44.453Z,39.46
2023-03-10T20:50:10.777Z,38.93
2023-03-10T20:52:37.154Z,38.93
2023-03-10T20:55:03.486Z,39.27
2023-03-10T20:57:29.930Z,39.22
2023-03-10T20:59:56.271Z,39.19
2023-03-10T21:02:22.673Z,39.19
2023-03-10T21:04:49.041Z,39.13
2023-03-10T21:07:15.420Z,39.13
2023-03-10T21:09:41.759Z,39.12
2023-03-10T21:12:08.151Z,39.19
2023-03-10T21:14:34.486Z,39.19
2023-03-10T21:17:00.914Z,39.12
2023-03-10T21:19:27.231Z,39.12
2023-03-10T21:21:53.624Z,38.99
2023-03-10T21:24:19.960Z,38.99
2023-03-10T21:26:46.360Z,39.16
2023-03-10T21:29:12.690Z,39.16
2023-03-10T21:31:39.071Z,39.19
2023-03-10T21:34:05.410Z,39.25
2023-03-10T21:36:31.804Z,39.19
2023-03-10T21:38:58.172Z,39.21
2023-03-10T21:41:24.561Z,39.20
2023-03-10T21:43:50.900Z,39.23
2023-03-10T21:46:17.319Z,39.03
2023-03-10T21:48:43.649Z,39.03
2023-03-10T21:51:10.031Z,39.27
2023-03-10T21:53:36.434Z,39.28
2023-03-10T21:56:02.787Z,39.30
2023-03-10T21:58:29.188Z,39.31
2023-03-10T22:00:56.342Z,39.30
2023-03-10T22:03:21.910Z,39.35
2023-03-10T22:05:48.278Z,39.35
2023-03-10T22:08:14.620Z,39.35
2023-03-10T22:10:41.006Z,39.38
2023-03-10T22:13:07.367Z,39.37
2023-03-10T22:15:33.749Z,39.38
2023-03-10T22:18:00.125Z,39.44
2023-03-10T22:20:26.510Z,39.46
2023-03-10T22:22:52.844Z,39.45
2023-03-10T22:25:19.240Z,39.51
2023-03-10T22:27:45.569Z,39.47
2023-03-10T22:30:11.976Z,39.50
2023-03-10T22:32:38.355Z,39.47
2023-03-10T22:35:04.694Z,39.49
2023-03-10T22:37:31.037Z,39.49
2023-03-10T22:39:57.445Z,39.55
2023-03-10T22:42:23.782Z,39.57
2023-03-10T22:44:50.191Z,39.53
2023-03-10T22:47:16.520Z,39.55
2023-03-10T22:49:42.898Z,39.59
2023-03-10T22:52:09.235Z,39.59
2023-03-10T22:54:35.624Z,39.57
2023-03-10T22:57:01.966Z,39.63
2023-03-10T22:59:28.349Z,39.63
2023-03-10T23:01:54.789Z,39.60
2023-03-10T23:04:21.074Z,39.64
2023-03-10T23:06:47.418Z,39.64
2023-03-10T23:09:13.824Z,39.67
2023-03-10T23:11:40.164Z,39.66
2023-03-10T23:14:06.547Z,39.70
2023-03-10T23:16:33.264Z,39.84
2023-03-10T23:18:59.267Z,39.78
2023-03-10T23:21:25.611Z,39.82
2023-03-10T23:23:51.996Z,39.79
2023-03-10T23:26:18.329Z,39.72
2023-03-10T23:28:44.708Z,39.72
2023-03-10T23:31:11.092Z,39.72
2023-03-10T23:33:37.444Z,39.78
2023-03-10T23:36:03.843Z,39.75
2023-03-10T23:38:30.190Z,39.79
2023-03-10T23:40:56.523Z,39.77
2023-03-10T23:43:22.898Z,39.80
2023-03-10T23:45:49.271Z,39.82
2023-03-10T23:48:15.623Z,39.84
2023-03-10T23:50:41.986Z,39.82
2023-03-10T23:53:08.361Z,39.84
2023-03-10T23:55:34.712Z,39.83
2023-03-10T23:58:01.127Z,39.89
